TimeEDT,TemperatureF,Dew PointF,Humidity,Sea Level PressureIn,VisibilityMPH,Wind Direction,Wind SpeedMPH,Gust SpeedMPH,PrecipitationIn,Events,Conditions,WindDirDegrees,DateUTC
12:53 AM,66.9,61.0,81,30.09,10.0,Calm,Calm,-,N/A,,Clear,0,2013-05-30 04:53:00
1:53 AM,66.0,61.0,84,30.09,10.0,SE,3.5,-,N/A,,Clear,130,2013-05-30 05:53:00
2:53 AM,64.9,60.1,84,30.10,10.0,Calm,Calm,-,N/A,,Clear,0,2013-05-30 06:53:00
3:53 AM,64.0,60.1,87,30.12,10.0,Calm,Calm,-,N/A,,Clear,0,2013-05-30 07:53:00
4:53 AM,63.0,60.1,90,30.13,8.0,ESE,3.5,-,N/A,,Clear,110,2013-05-30 08:53:00
5:53 AM,62.1,59.0,90,30.14,9.0,ESE,4.6,-,N/A,,Clear,120,2013-05-30 09:53:00
6:53 AM,64.0,60.1,87,30.14,7.0,SE,5.8,-,N/A,,Clear,130,2013-05-30 10:53:00
7:53 AM,68.0,62.1,81,30.16,10.0,SE,5.8,-,N/A,,Clear,130,2013-05-30 11:53:00
8:53 AM,73.0,63.0,71,30.18,10.0,ESE,3.5,-,N/A,,Clear,120,2013-05-30 12:53:00
9:53 AM,78.1,62.1,58,30.18,10.0,Variable,5.8,-,N/A,,Clear,0,2013-05-30 13:53:00
10:53 AM,80.1,63.0,56,30.18,10.0,SSW,5.8,-,N/A,,Clear,210,2013-05-30 14:53:00
11:53 AM,82.0,62.1,51,30.17,10.0,WSW,5.8,-,N/A,,Clear,250,2013-05-30 15:53:00
12:53 PM,82.9,62.1,49,30.16,10.0,Variable,5.8,-,N/A,,Clear,0,2013-05-30 16:53:00
1:53 PM,84.9,62.1,46,30.14,10.0,SSW,10.4,16.1,N/A,,Partly Cloudy,210,2013-05-30 17:53:00
2:53 PM,86.0,62.1,44,30.13,10.0,Variable,5.8,-,N/A,,Scattered Clouds,0,2013-05-30 18:53:00
3:53 PM,88.0,61.0,40,30.12,10.0,South,8.1,-,N/A,,Mostly Cloudy,190,2013-05-30 19:53:00
4:53 PM,88.0,61.0,40,30.10,10.0,SSE,10.4,16.1,N/A,,Scattered Clouds,160,2013-05-30 20:53:00
5:53 PM,86.0,61.0,43,30.09,10.0,Variable,5.8,-,N/A,,Partly Cloudy,0,2013-05-30 21:53:00
6:53 PM,84.9,61.0,44,30.07,10.0,South,8.1,-,N/A,,Clear,180,2013-05-30 22:53:00
7:53 PM,82.9,62.1,49,30.07,10.0,South,5.8,-,N/A,,Clear,170,2013-05-30 23:53:00
8:53 PM,78.1,62.1,58,30.07,10.0,SE,3.5,-,N/A,,Clear,130,2013-05-31 00:53:00
9:53 PM,72.0,63.0,73,30.08,10.0,ESE,4.6,-,N/A,,Clear,120,2013-05-31 01:53:00
10:53 PM,68.0,63.0,84,30.09,10.0,ESE,4.6,-,N/A,,Clear,120,2013-05-31 02:53:00
11:53 PM,66.9,62.1,84,30.09,8.0,Calm,Calm,-,N/A,,Clear,0,2013-05-31 03:53:00